createdAt,value
2022-08-22T00:02:36.869Z,100968.34
2022-08-22T00:02:41.622Z,100934.44
2022-08-22T00:02:49.418Z,100962.94
2022-08-22T00:02:57.558Z,100991.59
2022-08-22T00:06:17.881Z,100966.28
2022-08-22T00:09:33.347Z,100956.00
2022-08-22T00:12:32.604Z,100963.50
2022-08-22T00:15:42.100Z,100967.91
2022-08-22T00:18:40.020Z,100967.19
2022-08-22T00:21:37.020Z,100934.63
2022-08-22T00:25:24.828Z,100968.47
2022-08-22T00:28:24.285Z,100970.19
2022-08-22T00:31:40.346Z,100972.91
2022-08-22T00:34:37.725Z,100961.94
2022-08-22T00:37:52.672Z,100973.00
2022-08-22T00:41:24.353Z,100970.34
2022-08-22T00:44:53.946Z,100942.41
2022-08-22T00:48:15.268Z,100975.22
2022-08-22T00:51:46.041Z,100975.13
2022-08-22T00:55:04.234Z,100970.94
2022-08-22T00:58:23.925Z,100981.91
2022-08-22T01:01:14.184Z,100971.09
2022-08-22T01:04:07.533Z,100967.66
2022-08-22T01:07:30.629Z,100965.72
2022-08-22T01:10:50.765Z,100960.34
2022-08-22T01:13:54.022Z,100960.06
2022-08-22T01:17:02.609Z,100964.19
2022-08-22T01:20:03.392Z,100955.59
2022-08-22T01:23:25.277Z,100955.97
2022-08-22T01:26:33.808Z,100955.03
2022-08-22T01:29:42.445Z,100955.19
2022-08-22T01:33:06.005Z,100954.28
2022-08-22T01:36:21.026Z,100954.50
2022-08-22T01:39:26.887Z,100949.56
2022-08-22T01:42:32.362Z,100951.91
2022-08-22T01:45:58.536Z,100951.53
2022-08-22T01:49:27.741Z,100955.25
2022-08-22T01:52:19.509Z,100950.84
2022-08-22T01:55:14.173Z,100937.75
2022-08-22T01:58:19.872Z,100934.66
2022-08-22T02:01:28.383Z,100939.97
2022-08-22T02:04:27.672Z,100939.63
2022-08-22T02:07:20.845Z,100939.28
2022-08-22T02:10:18.796Z,100933.53
2022-08-22T02:13:14.820Z,100929.94
2022-08-22T02:16:16.256Z,100933.22
2022-08-22T02:19:15.717Z,100932.44
2022-08-22T02:22:05.958Z,100931.00
2022-08-22T02:25:15.036Z,100922.66
2022-08-22T02:28:10.780Z,100933.06
2022-08-22T02:31:11.844Z,100936.28
2022-08-22T02:34:35.839Z,100928.59
2022-08-22T02:37:34.537Z,100923.44
2022-08-22T02:40:40.882Z,100926.25
2022-08-22T02:43:52.006Z,100917.25
2022-08-22T02:46:51.288Z,100925.94
2022-08-22T02:50:13.070Z,100923.66
2022-08-22T02:53:28.303Z,100925.47
2022-08-22T02:56:32.424Z,100923.72
2022-08-22T02:59:39.604Z,100916.22
2022-08-22T03:02:34.786Z,100923.19
2022-08-22T03:05:26.320Z,100916.03
2022-08-22T03:08:25.308Z,100915.63
2022-08-22T03:11:27.140Z,100911.53
2022-08-22T03:14:30.904Z,100908.56
2022-08-22T03:17:30.424Z,100910.72
2022-08-22T03:20:45.058Z,100905.06
2022-08-22T03:23:42.016Z,100908.13
2022-08-22T03:26:51.870Z,100913.09
2022-08-22T03:30:07.429Z,100911.66
2022-08-22T03:33:22.852Z,100911.88
2022-08-22T03:36:15.756Z,100911.03
2022-08-22T03:39:22.848Z,100920.22
2022-08-22T03:42:16.067Z,100907.09
2022-08-22T03:45:26.456Z,100903.38
2022-08-22T03:48:51.437Z,100897.09
2022-08-22T03:51:57.729Z,100895.34
2022-08-22T03:55:03.532Z,100897.63
2022-08-22T03:58:27.610Z,100899.38
2022-08-22T04:01:53.418Z,100901.69
2022-08-22T04:04:43.585Z,100892.84
2022-08-22T04:07:53.092Z,100899.75
2022-08-22T04:10:59.247Z,100903.38
2022-08-22T04:14:19.218Z,100906.53
2022-08-22T04:17:27.273Z,100904.34
2022-08-22T04:20:48.691Z,100901.94
2022-08-22T04:23:41.903Z,100904.84
2022-08-22T04:26:51.426Z,100896.09
2022-08-22T04:29:50.025Z,100901.69
2022-08-22T04:32:43.692Z,100890.53
2022-08-22T04:35:44.334Z,100899.50
2022-08-22T04:38:42.184Z,100885.56
2022-08-22T04:41:48.705Z,100893.47
2022-08-22T04:44:41.124Z,100891.75
2022-08-22T04:47:38.533Z,100897.66
2022-08-22T04:50:48.785Z,100905.19
2022-08-22T04:53:52.475Z,100908.72
2022-08-22T04:57:01.517Z,100906.88
2022-08-22T04:59:50.308Z,100901.94
2022-08-22T05:02:44.765Z,100898.63
2022-08-22T05:05:41.532Z,100906.28
2022-08-22T05:08:33.230Z,100913.09
2022-08-22T05:11:22.982Z,100915.22
2022-08-22T05:14:28.234Z,100922.44
2022-08-22T05:17:20.330Z,100918.41
2022-08-22T05:20:12.036Z,100927.53
2022-08-22T05:23:17.525Z,100927.63
2022-08-22T05:26:07.113Z,100926.38
2022-08-22T05:29:00.139Z,100931.50
2022-08-22T05:31:54.521Z,100928.81
2022-08-22T05:34:45.094Z,100918.09
2022-08-22T05:37:48.247Z,100910.25
2022-08-22T05:40:37.929Z,100899.59
2022-08-22T05:43:26.296Z,100912.03
2022-08-22T05:46:20.325Z,100912.81
2022-08-22T05:49:36.285Z,100918.28
2022-08-22T05:52:36.882Z,100921.50
2022-08-22T05:55:46.478Z,100927.72
2022-08-22T05:58:39.751Z,100923.44
2022-08-22T06:01:27.535Z,100929.94
2022-08-22T06:04:27.172Z,100937.25
2022-08-22T06:07:21.913Z,100934.56
2022-08-22T06:10:17.570Z,100932.94
2022-08-22T06:13:34.854Z,100930.78
2022-08-22T06:16:48.509Z,100938.66
2022-08-22T06:19:40.117Z,100949.47
2022-08-22T06:22:32.044Z,100955.47
2022-08-22T06:25:43.235Z,100956.28
2022-08-22T06:28:37.846Z,100954.38
2022-08-22T06:31:45.786Z,100957.88
2022-08-22T06:34:37.841Z,100954.19
2022-08-22T06:37:36.694Z,100960.53
2022-08-22T06:40:24.964Z,100937.19
2022-08-22T06:43:12.819Z,100932.50
2022-08-22T06:46:00.877Z,100951.41
2022-08-22T06:48:50.071Z,100946.72
2022-08-22T06:51:38.793Z,100947.34
2022-08-22T06:54:34.167Z,100950.81
2022-08-22T06:57:37.133Z,100944.56
2022-08-22T07:00:26.628Z,100945.56
2022-08-22T07:03:36.261Z,100941.25
2022-08-22T07:06:42.594Z,100936.38
2022-08-22T07:09:37.152Z,100939.69
2022-08-22T07:12:35.188Z,100936.94
2022-08-22T07:15:39.676Z,100933.97
2022-08-22T07:18:29.658Z,100940.66
2022-08-22T07:21:29.890Z,100934.72
2022-08-22T07:24:25.580Z,100945.41
2022-08-22T07:27:40.540Z,100941.38
2022-08-22T07:30:53.177Z,100944.59
2022-08-22T07:34:12.117Z,100939.31
2022-08-22T07:37:30.684Z,100943.38
2022-08-22T07:40:52.121Z,100943.09
2022-08-22T07:44:13.404Z,100943.72
2022-08-22T07:47:16.334Z,100948.56
2022-08-22T07:50:08.392Z,100936.78
2022-08-22T07:53:13.352Z,100940.66
2022-08-22T07:56:06.800Z,100958.00
2022-08-22T07:59:10.095Z,100951.38
2022-08-22T08:02:04.769Z,100947.16
2022-08-22T08:04:55.018Z,100948.16
2022-08-22T08:07:45.421Z,100955.31
2022-08-22T08:10:37.291Z,100951.50
2022-08-22T08:13:29.621Z,100946.19
2022-08-22T08:16:21.708Z,100935.53
2022-08-22T08:19:11.812Z,100940.53
2022-08-22T08:21:59.769Z,100936.25
2022-08-22T08:24:49.430Z,100938.75
2022-08-22T08:27:57.058Z,100938.03
2022-08-22T08:30:53.414Z,100933.22
2022-08-22T08:33:44.661Z,100930.81
2022-08-22T08:36:51.202Z,100926.56
2022-08-22T08:39:43.969Z,100928.34
2022-08-22T08:43:21.831Z,100919.94
2022-08-22T08:46:40.350Z,100923.16
2022-08-22T08:50:09.623Z,100918.66
2022-08-22T08:53:02.930Z,100921.56
2022-08-22T08:56:19.767Z,100913.91
2022-08-22T08:59:48.175Z,100913.97
2022-08-22T09:02:50.384Z,100912.50
2022-08-22T09:05:47.269Z,100906.16
2022-08-22T09:08:50.668Z,100904.19
2022-08-22T09:12:05.972Z,100896.16
2022-08-22T09:15:11.983Z,100858.00
2022-08-22T09:18:33.242Z,100893.84
2022-08-22T09:22:14.492Z,100891.97
2022-08-22T09:25:23.582Z,100868.06
2022-08-22T09:28:15.317Z,100894.44
2022-08-22T09:34:57.325Z,100888.19
2022-08-22T09:38:00.466Z,100887.41
2022-08-22T09:40:15.703Z,100890.31
2022-08-22T09:40:52.154Z,100885.31
2022-08-22T09:44:01.238Z,100882.06
2022-08-22T09:47:24.669Z,100867.50
2022-08-22T09:50:20.613Z,100865.63
2022-08-22T09:53:58.593Z,100877.47
2022-08-22T09:56:58.332Z,100863.09
2022-08-22T10:00:00.005Z,100876.34
2022-08-22T10:03:09.634Z,100871.88
2022-08-22T10:06:05.555Z,100873.53
2022-08-22T10:09:05.097Z,100869.97
2022-08-22T10:12:03.269Z,100866.97
2022-08-22T10:15:06.922Z,100858.22
2022-08-22T10:18:10.317Z,100857.44
2022-08-22T10:21:07.448Z,100855.06
2022-08-22T10:24:03.164Z,100850.69
2022-08-22T10:26:58.203Z,100852.41
2022-08-22T10:29:54.968Z,100849.66
2022-08-22T10:32:49.961Z,100846.88
2022-08-22T10:36:00.461Z,100835.50
2022-08-22T10:38:55.380Z,100846.59
2022-08-22T10:42:00.945Z,100840.56
2022-08-22T10:45:02.516Z,100839.28
2022-08-22T10:47:58.670Z,100842.69
2022-08-22T10:50:55.144Z,100843.38
2022-08-22T10:53:58.443Z,100846.25
2022-08-22T10:56:52.886Z,100840.81
2022-08-22T11:00:03.024Z,100848.06
2022-08-22T11:03:02.309Z,100840.63
2022-08-22T11:05:51.648Z,100846.22
2022-08-22T11:08:51.201Z,100842.34
2022-08-22T11:11:46.096Z,100838.47
2022-08-22T11:14:40.485Z,100836.53
2022-08-22T11:18:13.090Z,100838.75
2022-08-22T11:21:15.745Z,100832.38
2022-08-22T11:24:35.647Z,100830.16
2022-08-22T11:27:59.112Z,100826.56
2022-08-22T11:31:07.198Z,100826.28
2022-08-22T11:34:15.233Z,100822.16
2022-08-22T11:37:42.228Z,100826.53
2022-08-22T11:40:42.533Z,100822.09
2022-08-22T11:44:03.357Z,100814.69
2022-08-22T11:46:55.289Z,100809.44
2022-08-22T11:49:52.569Z,100807.75
2022-08-22T11:53:18.550Z,100810.50
2022-08-22T11:56:34.877Z,100806.63
2022-08-22T11:59:32.982Z,100810.78
2022-08-22T12:02:59.880Z,100796.06
2022-08-22T12:05:47.167Z,100795.25
2022-08-22T12:08:35.130Z,100799.91
2022-08-22T12:11:32.221Z,100800.47
2022-08-22T12:14:32.196Z,100794.94
2022-08-22T12:17:55.861Z,100804.31
2022-08-22T12:21:06.677Z,100793.75
2022-08-22T12:24:19.293Z,100789.00
2022-08-22T12:27:29.689Z,100790.41
2022-08-22T12:30:41.718Z,100785.91
2022-08-22T12:33:53.986Z,100779.78
2022-08-22T12:37:15.627Z,100778.00
2022-08-22T12:40:48.049Z,100779.03
2022-08-22T12:43:46.856Z,100780.72
2022-08-22T12:46:46.684Z,100775.94
2022-08-22T12:49:49.801Z,100767.75
2022-08-22T12:53:06.000Z,100773.56
2022-08-22T12:56:04.949Z,100756.34
2022-08-22T12:59:07.393Z,100758.75
2022-08-22T13:02:01.265Z,100747.34
2022-08-22T13:04:59.110Z,100758.69
2022-08-22T13:07:54.396Z,100735.31
2022-08-22T13:10:45.774Z,100748.19
2022-08-22T13:13:56.484Z,100747.34
2022-08-22T13:16:51.128Z,100749.53
2022-08-22T13:19:52.898Z,100718.31
2022-08-22T13:22:45.425Z,100739.78
2022-08-22T13:26:16.445Z,100742.63
2022-08-22T13:29:27.454Z,100739.91
2022-08-22T13:32:37.936Z,100736.59
2022-08-22T13:35:51.894Z,100731.13
2022-08-22T13:38:46.338Z,100731.63
2022-08-22T13:41:44.945Z,100725.25
2022-08-22T13:44:46.469Z,100724.91
2022-08-22T13:47:39.222Z,100721.88
2022-08-22T13:50:52.914Z,100726.63
2022-08-22T13:54:01.033Z,100719.31
2022-08-22T13:57:02.673Z,100715.19
2022-08-22T14:00:06.173Z,100717.28
2022-08-22T14:03:15.604Z,100721.16
2022-08-22T14:06:32.871Z,100717.75
2022-08-22T14:12:15.328Z,100714.13
2022-08-22T14:15:07.495Z,100711.34
2022-08-22T14:18:03.361Z,100707.88
2022-08-22T14:20:51.307Z,100708.63
2022-08-22T14:23:38.714Z,100712.13
2022-08-22T14:26:37.364Z,100710.47
2022-08-22T14:29:58.056Z,100708.13
2022-08-22T14:33:20.841Z,100713.25
2022-08-22T14:36:20.118Z,100699.69
2022-08-22T14:39:09.987Z,100702.03
2022-08-22T14:42:10.904Z,100705.81
2022-08-22T14:45:12.666Z,100696.94
2022-08-22T14:48:29.948Z,100687.56
2022-08-22T14:51:24.074Z,100683.72
2022-08-22T14:54:21.535Z,100690.81
2022-08-22T14:57:14.174Z,100678.06
2022-08-22T15:00:12.163Z,100674.59
2022-08-22T15:03:32.230Z,100671.38
2022-08-22T15:06:47.821Z,100670.91
2022-08-22T15:09:49.009Z,100665.38
2022-08-22T15:12:40.629Z,100665.50
2022-08-22T15:15:41.238Z,100659.09
2022-08-22T15:18:41.148Z,100662.50
2022-08-22T15:21:41.401Z,100651.41
2022-08-22T15:24:29.961Z,100626.06
2022-08-22T15:27:20.113Z,100658.22
2022-08-22T15:30:18.740Z,100656.97
2022-08-22T15:33:15.776Z,100654.41
2022-08-22T15:36:19.875Z,100649.00
2022-08-22T15:39:27.176Z,100651.75
2022-08-22T15:42:26.001Z,100655.44
2022-08-22T15:45:33.689Z,100646.00
2022-08-22T15:48:39.031Z,100644.16
2022-08-22T15:51:50.338Z,100643.66
2022-08-22T15:54:46.956Z,100643.72
2022-08-22T15:57:41.795Z,100647.97
2022-08-22T16:01:02.571Z,100648.34
2022-08-22T16:04:13.739Z,100643.44
2022-08-22T16:07:02.512Z,100643.72
2022-08-22T16:09:56.726Z,100646.56
2022-08-22T16:12:47.613Z,100641.84
2022-08-22T16:15:46.999Z,100652.97
2022-08-22T16:18:34.224Z,100640.25
2022-08-22T16:21:21.993Z,100653.06
2022-08-22T16:24:09.224Z,100653.09
2022-08-22T16:26:56.816Z,100644.59
2022-08-22T16:29:45.305Z,100638.56
2022-08-22T16:32:33.763Z,100637.41
2022-08-22T16:35:58.685Z,100650.81
2022-08-22T16:38:52.813Z,100650.13
2022-08-22T16:41:43.468Z,100643.88
2022-08-22T16:44:30.702Z,100647.91
2022-08-22T16:47:36.223Z,100634.47
2022-08-22T16:50:38.345Z,100637.91
2022-08-22T16:53:28.296Z,100637.91
2022-08-22T16:56:29.678Z,100632.66
2022-08-22T16:59:38.660Z,100635.13
2022-08-22T17:02:57.497Z,100626.28
2022-08-22T17:06:11.009Z,100635.75
2022-08-22T17:09:04.264Z,100635.25
2022-08-22T17:12:18.828Z,100627.59
2022-08-22T17:15:24.782Z,100632.88
2022-08-22T17:18:47.383Z,100641.44
2022-08-22T17:22:19.999Z,100630.47
2022-08-22T17:25:21.978Z,100631.03
2022-08-22T17:28:34.370Z,100622.94
2022-08-22T17:31:49.777Z,100631.97
2022-08-22T17:34:59.420Z,100604.84
2022-08-22T17:38:10.669Z,100624.41
2022-08-22T17:41:26.467Z,100630.84
2022-08-22T17:44:25.966Z,100627.84
2022-08-22T17:47:22.193Z,100624.03
2022-08-22T17:50:22.813Z,100633.47
2022-08-22T17:53:31.850Z,100626.38
2022-08-22T17:56:45.478Z,100633.59
2022-08-22T17:59:46.601Z,100640.84
2022-08-22T18:02:40.462Z,100621.06
2022-08-22T18:05:36.468Z,100644.25
2022-08-22T18:09:13.309Z,100644.31
2022-08-22T18:11:55.056Z,100645.47
2022-08-22T18:14:58.963Z,100650.47
2022-08-22T18:17:56.802Z,100652.69
2022-08-22T18:20:55.989Z,100653.56
2022-08-22T18:24:18.645Z,100650.53
2022-08-22T18:27:34.442Z,100646.44
2022-08-22T18:30:27.752Z,100644.78
2022-08-22T18:33:26.954Z,100628.78
2022-08-22T18:36:34.525Z,100656.72
2022-08-22T18:39:49.407Z,100666.72
2022-08-22T18:42:47.537Z,100655.13
2022-08-22T18:45:46.852Z,100666.72
2022-08-22T18:48:34.140Z,100669.75
2022-08-22T18:51:26.627Z,100671.69
2022-08-22T18:54:29.810Z,100666.19
2022-08-22T18:57:54.119Z,100668.94
2022-08-22T19:01:07.534Z,100674.47
2022-08-22T19:04:22.359Z,100666.75
2022-08-22T19:07:30.252Z,100682.22
2022-08-22T19:10:37.400Z,100683.34
2022-08-22T19:14:18.397Z,100687.19
2022-08-22T19:17:28.274Z,100686.09
2022-08-22T19:20:48.707Z,100684.13
2022-08-22T19:23:36.692Z,100688.28
2022-08-22T19:26:30.031Z,100695.47
2022-08-22T19:29:17.366Z,100696.56
2022-08-22T19:32:11.874Z,100700.94
2022-08-22T19:35:20.960Z,100706.72
2022-08-22T19:38:09.883Z,100706.47
2022-08-22T19:40:58.242Z,100694.84
2022-08-22T19:43:46.623Z,100704.25
2022-08-22T19:46:38.246Z,100703.94
2022-08-22T19:49:34.557Z,100707.53
2022-08-22T19:52:59.366Z,100710.81
2022-08-22T19:56:05.025Z,100704.75
2022-08-22T19:59:08.612Z,100709.72
2022-08-22T20:02:38.712Z,100700.28
2022-08-22T20:05:58.093Z,100707.72
2022-08-22T20:09:11.353Z,100701.66
2022-08-22T20:12:17.073Z,100706.31
2022-08-22T20:15:31.437Z,100707.41
2022-08-22T20:19:02.253Z,100710.72
2022-08-22T20:21:58.864Z,100709.88
2022-08-22T20:25:16.874Z,100706.75
2022-08-22T20:28:40.757Z,100717.75
2022-08-22T20:31:34.717Z,100712.22
2022-08-22T20:34:26.925Z,100709.75
2022-08-22T20:37:35.527Z,100712.44
2022-08-22T20:40:57.042Z,100704.47
2022-08-22T20:44:02.273Z,100711.59
2022-08-22T20:47:01.058Z,100716.25
2022-08-22T20:49:53.106Z,100713.19
2022-08-22T20:52:51.878Z,100703.22
2022-08-22T20:55:54.654Z,100703.78
2022-08-22T20:58:48.273Z,100710.72
2022-08-22T21:01:36.546Z,100701.59
2022-08-22T21:04:28.453Z,100694.88
2022-08-22T21:07:24.644Z,100686.00
2022-08-22T21:10:46.001Z,100689.28
2022-08-22T21:13:36.114Z,100697.56
2022-08-22T21:16:33.249Z,100683.13
2022-08-22T21:19:29.863Z,100682.00
2022-08-22T21:22:32.212Z,100699.59
2022-08-22T21:25:19.552Z,100702.88
2022-08-22T21:28:06.856Z,100704.03
2022-08-22T21:30:54.326Z,100706.22
2022-08-22T21:33:45.053Z,100713.38
2022-08-22T21:36:37.897Z,100696.78
2022-08-22T21:39:34.208Z,100707.31
2022-08-22T21:42:32.045Z,100708.41
2022-08-22T21:45:32.098Z,100703.13
2022-08-22T21:48:33.213Z,100701.66
2022-08-22T21:51:21.567Z,100707.75
2022-08-22T21:54:25.292Z,100695.66
2022-08-22T21:57:12.649Z,100703.81
2022-08-22T22:00:00.347Z,100701.59
2022-08-22T22:02:48.954Z,100705.53
2022-08-22T22:05:37.072Z,100703.56
2022-08-22T22:08:25.256Z,100698.34
2022-08-22T22:11:18.987Z,100697.47
2022-08-22T22:14:06.941Z,100701.84
2022-08-22T22:16:54.265Z,100696.66
2022-08-22T22:19:41.669Z,100709.84
2022-08-22T22:22:28.997Z,100705.97
2022-08-22T22:25:40.998Z,100709.25
2022-08-22T22:28:34.409Z,100702.59
2022-08-22T22:31:21.688Z,100713.53
2022-08-22T22:34:08.953Z,100705.25
2022-08-22T22:36:56.343Z,100715.41
2022-08-22T22:39:43.735Z,100716.72
2022-08-22T22:42:31.052Z,100711.41
2022-08-22T22:45:18.723Z,100711.91
2022-08-22T22:48:07.281Z,100722.03
2022-08-22T22:50:56.161Z,100717.56
2022-08-22T22:53:44.760Z,100716.78
2022-08-22T22:56:32.120Z,100716.53
2022-08-22T22:59:24.712Z,100712.53
2022-08-22T23:02:20.936Z,100723.06
2022-08-22T23:05:10.569Z,100718.06
2022-08-22T23:07:59.154Z,100726.41
2022-08-22T23:10:46.600Z,100725.31
2022-08-22T23:13:35.192Z,100719.59
2022-08-22T23:16:28.704Z,100725.56
2022-08-22T23:19:17.587Z,100722.25
2022-08-22T23:22:06.581Z,100720.03
2022-08-22T23:24:53.942Z,100721.03
2022-08-22T23:27:41.358Z,100724.09
2022-08-22T23:30:28.614Z,100720.03
2022-08-22T23:33:15.865Z,100729.53
2022-08-22T23:36:13.882Z,100726.25
2022-08-22T23:39:01.228Z,100733.81
2022-08-22T23:41:49.280Z,100731.97
2022-08-22T23:44:38.536Z,100715.97
2022-08-22T23:47:25.881Z,100729.25
2022-08-22T23:50:13.116Z,100739.25
2022-08-22T23:53:00.515Z,100734.25
2022-08-22T23:55:47.854Z,100727.69
2022-08-22T23:58:36.141Z,100725.31
